createdAt,value
2017-08-30T00:00:25.128Z,27.13
2017-08-30T00:01:05.584Z,27.1
2017-08-30T00:01:46.036Z,27.07
2017-08-30T00:02:26.488Z,27.16
2017-08-30T00:03:06.946Z,27.11
2017-08-30T00:03:47.390Z,27.16
2017-08-30T00:04:27.849Z,27.15
2017-08-30T00:05:08.293Z,27.13
2017-08-30T00:05:48.749Z,27.13
2017-08-30T00:06:29.212Z,27.18
2017-08-30T00:07:09.656Z,27.15
2017-08-30T00:07:50.112Z,27.15
2017-08-30T00:08:30.568Z,27.15
2017-08-30T00:09:11.027Z,27.1
2017-08-30T00:09:51.472Z,27.1
2017-08-30T00:10:31.924Z,27.07
2017-08-30T00:11:12.389Z,27.19
2017-08-30T00:11:52.849Z,27.15
2017-08-30T00:12:33.307Z,27.07
2017-08-30T00:13:13.756Z,27.13
2017-08-30T00:13:54.202Z,27.04
2017-08-30T00:14:34.656Z,27.05
2017-08-30T00:15:15.108Z,27.11
2017-08-30T00:15:55.571Z,27.07
2017-08-30T00:16:36.025Z,27.07
2017-08-30T00:17:16.470Z,27.01
2017-08-30T00:17:56.926Z,27.07
2017-08-30T00:18:37.383Z,27.03
2017-08-30T00:19:17.837Z,27.13
2017-08-30T00:19:58.287Z,27.08
2017-08-30T00:20:38.740Z,27.04
2017-08-30T00:21:19.193Z,27.04
2017-08-30T00:21:59.642Z,26.98
2017-08-30T00:22:40.092Z,27.04
2017-08-30T00:23:20.546Z,27.04
2017-08-30T00:24:01.000Z,27
2017-08-30T00:24:41.438Z,27.11
2017-08-30T00:25:21.916Z,27.05
2017-08-30T00:26:02.370Z,27.04
2017-08-30T00:26:42.857Z,27
2017-08-30T00:27:23.343Z,27.08
2017-08-30T00:28:03.806Z,27
2017-08-30T00:28:44.259Z,27.07
2017-08-30T00:29:24.715Z,27.07
2017-08-30T00:30:05.183Z,26.97
2017-08-30T00:30:45.638Z,27.04
2017-08-30T00:31:26.094Z,26.98
2017-08-30T00:32:06.549Z,27
2017-08-30T00:32:47.000Z,27.04
2017-08-30T00:33:27.503Z,27
2017-08-30T00:34:07.955Z,27.08
2017-08-30T00:34:48.417Z,27.03
2017-08-30T00:35:28.912Z,27.04
2017-08-30T00:36:09.362Z,27.07
2017-08-30T00:36:49.812Z,27.04
2017-08-30T00:37:30.386Z,27.03
2017-08-30T00:38:10.841Z,26.93
2017-08-30T00:38:51.306Z,27.04
2017-08-30T00:39:31.752Z,27.04
2017-08-30T00:40:12.210Z,27.03
2017-08-30T00:40:52.665Z,26.96
2017-08-30T00:41:33.110Z,26.96
2017-08-30T00:42:13.565Z,26.97
2017-08-30T00:42:54.023Z,27.05
2017-08-30T00:43:34.471Z,27
2017-08-30T00:44:14.936Z,27.03
2017-08-30T00:44:55.391Z,27.04
2017-08-30T00:45:35.842Z,27
2017-08-30T00:46:16.296Z,26.98
2017-08-30T00:46:56.753Z,26.97
2017-08-30T00:47:37.206Z,27.05
2017-08-30T00:48:17.660Z,27.07
2017-08-30T00:48:58.117Z,27.04
2017-08-30T00:49:38.574Z,27.04
2017-08-30T00:50:19.024Z,27.05
2017-08-30T00:50:59.485Z,26.96
2017-08-30T00:51:39.938Z,26.98
2017-08-30T00:52:20.395Z,27.01
2017-08-30T00:53:00.910Z,27.03
2017-08-30T00:53:41.371Z,27.01
2017-08-30T00:54:21.878Z,26.98
2017-08-30T00:55:02.334Z,27.01
2017-08-30T00:55:42.791Z,27.01
2017-08-30T00:56:23.246Z,26.96
2017-08-30T00:57:03.708Z,26.97
2017-08-30T00:57:44.167Z,27
2017-08-30T00:58:24.617Z,26.98
2017-08-30T00:59:05.076Z,27
2017-08-30T00:59:45.534Z,27.03
2017-08-30T01:00:25.985Z,26.98
2017-08-30T01:01:06.439Z,27
2017-08-30T01:01:46.893Z,27
2017-08-30T01:02:27.340Z,26.97
2017-08-30T01:03:07.794Z,26.96
2017-08-30T01:03:48.238Z,27
2017-08-30T01:04:28.698Z,26.97
2017-08-30T01:05:09.150Z,26.96
2017-08-30T01:05:49.595Z,26.96
2017-08-30T01:06:30.049Z,26.93
2017-08-30T01:07:10.508Z,26.86
2017-08-30T01:07:50.963Z,26.97
2017-08-30T01:08:31.425Z,26.88
2017-08-30T01:09:11.878Z,26.83
2017-08-30T01:09:52.329Z,26.88
2017-08-30T01:10:32.781Z,26.85
2017-08-30T01:11:13.240Z,26.89
2017-08-30T01:11:53.693Z,26.96
2017-08-30T01:12:34.142Z,26.86
2017-08-30T01:13:14.601Z,26.96
2017-08-30T01:13:55.048Z,26.89
2017-08-30T01:14:35.502Z,26.92
2017-08-30T01:15:15.959Z,26.85
2017-08-30T01:15:56.406Z,26.89
2017-08-30T01:16:36.870Z,26.93
2017-08-30T01:17:17.315Z,26.88
2017-08-30T01:17:57.766Z,26.96
2017-08-30T01:18:38.226Z,27
2017-08-30T01:19:18.681Z,26.91
2017-08-30T01:19:59.149Z,26.92
2017-08-30T01:20:39.609Z,26.91
2017-08-30T01:21:20.069Z,26.93
2017-08-30T01:22:00.522Z,26.91
2017-08-30T01:22:40.979Z,26.93
2017-08-30T01:23:21.442Z,26.88
2017-08-30T01:24:01.912Z,26.88
2017-08-30T01:24:42.339Z,26.83
2017-08-30T01:25:22.788Z,26.86
2017-08-30T01:26:03.240Z,26.93
2017-08-30T01:26:43.707Z,26.88
2017-08-30T01:27:24.167Z,26.92
2017-08-30T01:28:04.617Z,26.86
2017-08-30T01:28:45.072Z,26.96
2017-08-30T01:29:25.534Z,26.89
2017-08-30T01:30:05.986Z,26.86
2017-08-30T01:30:46.444Z,26.83
2017-08-30T01:31:26.909Z,26.89
2017-08-30T01:32:07.360Z,26.86
2017-08-30T01:32:47.811Z,26.81
2017-08-30T01:33:28.259Z,26.85
2017-08-30T01:34:08.716Z,26.91
2017-08-30T01:34:49.178Z,26.85
2017-08-30T01:35:29.638Z,26.86
2017-08-30T01:36:10.095Z,26.82
2017-08-30T01:36:50.552Z,26.78
2017-08-30T01:37:30.991Z,26.82
2017-08-30T01:38:11.451Z,26.85
2017-08-30T01:38:51.913Z,26.83
2017-08-30T01:39:32.364Z,26.83
2017-08-30T01:40:12.820Z,26.81
2017-08-30T01:40:53.280Z,26.85
2017-08-30T01:41:33.741Z,26.88
2017-08-30T01:42:14.194Z,26.83
2017-08-30T01:42:54.656Z,26.86
2017-08-30T01:43:35.105Z,26.88
2017-08-30T01:44:15.564Z,26.79
2017-08-30T01:44:56.019Z,26.83
2017-08-30T01:45:36.476Z,26.86
2017-08-30T01:46:17.019Z,26.85
2017-08-30T01:46:57.459Z,26.83
2017-08-30T01:47:37.914Z,26.74
2017-08-30T01:48:18.430Z,26.92
2017-08-30T01:48:58.887Z,26.73
2017-08-30T01:49:39.338Z,26.85
2017-08-30T01:50:19.845Z,26.82
2017-08-30T01:51:00.307Z,26.86
2017-08-30T01:51:40.758Z,26.82
2017-08-30T01:52:21.214Z,26.81
2017-08-30T01:53:01.742Z,26.83
2017-08-30T01:53:42.198Z,26.86
2017-08-30T01:54:22.707Z,26.86
2017-08-30T01:55:03.322Z,26.79
2017-08-30T01:55:43.708Z,26.86
2017-08-30T01:56:24.167Z,26.88
2017-08-30T01:57:04.629Z,26.83
2017-08-30T01:57:45.087Z,26.85
2017-08-30T01:58:25.536Z,26.81
2017-08-30T01:59:05.989Z,26.78
2017-08-30T01:59:46.448Z,26.76
2017-08-30T02:00:26.908Z,26.85
2017-08-30T02:01:07.362Z,26.71
2017-08-30T02:01:47.826Z,26.88
2017-08-30T02:02:28.282Z,26.83
2017-08-30T02:03:08.735Z,26.76
2017-08-30T02:03:49.206Z,26.83
2017-08-30T02:04:29.664Z,26.78
2017-08-30T02:05:10.120Z,26.86
2017-08-30T02:05:50.584Z,26.91
2017-08-30T02:06:31.039Z,26.83
2017-08-30T02:07:11.494Z,26.81
2017-08-30T02:07:51.947Z,26.82
2017-08-30T02:08:32.401Z,26.78
2017-08-30T02:09:12.865Z,26.82
2017-08-30T02:09:53.332Z,26.76
2017-08-30T02:10:34.583Z,26.73
2017-08-30T02:11:15.049Z,26.81
2017-08-30T02:11:55.502Z,26.73
2017-08-30T02:12:35.959Z,26.73
2017-08-30T02:13:16.410Z,26.83
2017-08-30T02:13:56.872Z,26.82
2017-08-30T02:14:37.333Z,26.74
2017-08-30T02:15:17.782Z,26.74
2017-08-30T02:15:58.241Z,26.81
2017-08-30T02:16:38.701Z,26.79
2017-08-30T02:17:19.150Z,26.82
2017-08-30T02:17:59.612Z,26.82
2017-08-30T02:18:40.065Z,26.79
2017-08-30T02:19:20.541Z,26.81
2017-08-30T02:20:00.971Z,26.85
2017-08-30T02:20:41.419Z,26.83
2017-08-30T02:21:21.876Z,26.83
2017-08-30T02:22:02.323Z,26.83
2017-08-30T02:22:42.783Z,26.83
2017-08-30T02:23:23.245Z,26.74
2017-08-30T02:24:03.702Z,26.73
2017-08-30T02:24:44.157Z,26.79
2017-08-30T02:25:24.615Z,26.79
2017-08-30T02:26:05.067Z,26.76
2017-08-30T02:26:45.518Z,26.81
2017-08-30T02:27:25.978Z,26.74
2017-08-30T02:28:06.440Z,26.83
2017-08-30T02:28:46.895Z,26.82
2017-08-30T02:29:27.359Z,26.79
2017-08-30T02:30:07.815Z,26.76
2017-08-30T02:30:48.265Z,26.76
2017-08-30T02:31:28.719Z,26.78
2017-08-30T02:32:09.178Z,26.7
2017-08-30T02:32:49.626Z,26.78
2017-08-30T02:33:30.084Z,26.73
2017-08-30T02:34:10.537Z,26.76
2017-08-30T02:34:51.001Z,26.76
2017-08-30T02:35:31.432Z,26.78
2017-08-30T02:36:11.885Z,26.78
2017-08-30T02:36:52.348Z,26.73
2017-08-30T02:37:32.802Z,26.76
2017-08-30T02:38:13.250Z,26.76
2017-08-30T02:38:53.713Z,26.76
2017-08-30T02:39:34.176Z,26.78
2017-08-30T02:40:14.638Z,26.73
2017-08-30T02:40:55.084Z,26.71
2017-08-30T02:41:35.532Z,26.66
2017-08-30T02:42:15.987Z,26.76
2017-08-30T02:42:56.441Z,26.78
2017-08-30T02:43:37.044Z,26.66
2017-08-30T02:44:17.501Z,26.81
2017-08-30T02:44:57.957Z,26.78
2017-08-30T02:45:38.459Z,26.73
2017-08-30T02:46:18.924Z,26.66
2017-08-30T02:46:59.381Z,26.7
2017-08-30T02:47:39.848Z,26.76
2017-08-30T02:48:20.313Z,26.64
2017-08-30T02:49:00.770Z,26.63
2017-08-30T02:49:41.231Z,26.71
2017-08-30T02:50:21.686Z,26.64
2017-08-30T02:51:02.140Z,26.64
2017-08-30T02:51:42.597Z,26.64
2017-08-30T02:52:23.049Z,26.78
2017-08-30T02:53:03.501Z,26.74
2017-08-30T02:53:43.960Z,26.81
2017-08-30T02:54:24.425Z,26.73
2017-08-30T02:55:04.882Z,26.66
2017-08-30T02:55:45.347Z,26.68
2017-08-30T02:56:25.807Z,26.68
2017-08-30T02:57:06.261Z,26.64
2017-08-30T02:57:46.716Z,26.7
2017-08-30T02:58:27.188Z,26.64
2017-08-30T02:59:07.635Z,26.68
2017-08-30T02:59:48.095Z,26.68
2017-08-30T03:00:28.551Z,26.67
2017-08-30T03:01:09.004Z,26.66
2017-08-30T03:01:49.458Z,26.64
2017-08-30T03:02:29.909Z,26.64
2017-08-30T03:03:10.357Z,26.68
2017-08-30T03:03:50.812Z,26.64
2017-08-30T03:04:31.276Z,26.66
2017-08-30T03:05:11.732Z,26.67
2017-08-30T03:05:52.193Z,26.68
2017-08-30T03:06:32.656Z,26.68
2017-08-30T03:07:13.090Z,26.68
2017-08-30T03:07:53.516Z,26.64
2017-08-30T03:08:33.974Z,26.66
2017-08-30T03:09:14.429Z,26.67
2017-08-30T03:09:54.898Z,26.63
2017-08-30T03:10:35.342Z,26.64
2017-08-30T03:11:15.799Z,26.74
2017-08-30T03:11:56.259Z,26.7
2017-08-30T03:12:36.709Z,26.67
2017-08-30T03:13:17.170Z,26.68
2017-08-30T03:13:57.624Z,26.7
2017-08-30T03:14:38.084Z,26.67
2017-08-30T03:15:18.542Z,26.66
2017-08-30T03:15:58.997Z,26.7
2017-08-30T03:16:39.462Z,26.63
2017-08-30T03:17:19.923Z,26.67
2017-08-30T03:18:00.364Z,26.67
2017-08-30T03:18:40.822Z,26.68
2017-08-30T03:19:21.322Z,26.64
2017-08-30T03:20:01.779Z,26.67
2017-08-30T03:20:42.227Z,26.66
2017-08-30T03:21:22.692Z,26.67
2017-08-30T03:22:03.247Z,26.66
2017-08-30T03:23:40.673Z,26.64
2017-08-30T03:24:21.231Z,26.64
2017-08-30T03:25:01.681Z,26.61
2017-08-30T03:25:42.138Z,26.63
2017-08-30T03:26:22.591Z,26.71
2017-08-30T03:27:03.041Z,26.68
2017-08-30T03:27:43.491Z,26.71
2017-08-30T03:28:23.949Z,26.61
2017-08-30T03:29:04.407Z,26.66
2017-08-30T03:29:44.871Z,26.63
2017-08-30T03:30:25.323Z,26.63
2017-08-30T03:31:05.780Z,26.66
2017-08-30T03:31:46.232Z,26.7
2017-08-30T03:32:26.676Z,26.64
2017-08-30T03:33:07.146Z,26.66
2017-08-30T03:33:47.600Z,26.67
2017-08-30T03:34:28.046Z,26.68
2017-08-30T03:35:08.500Z,26.6
2017-08-30T03:35:48.951Z,26.59
2017-08-30T03:36:29.414Z,26.68
2017-08-30T03:37:09.868Z,26.61
2017-08-30T03:37:50.320Z,26.68
2017-08-30T03:38:30.782Z,26.6
2017-08-30T03:39:11.239Z,26.61
2017-08-30T03:39:51.698Z,26.63
2017-08-30T03:40:32.158Z,26.64
2017-08-30T03:41:12.611Z,26.63
2017-08-30T03:41:53.071Z,26.59
2017-08-30T03:42:33.516Z,26.67
2017-08-30T03:43:13.980Z,26.59
2017-08-30T03:43:54.438Z,26.63
2017-08-30T03:44:34.901Z,26.63
2017-08-30T03:45:15.348Z,26.66
2017-08-30T03:45:55.797Z,26.63
2017-08-30T03:46:36.346Z,26.67
2017-08-30T03:47:16.803Z,26.59
2017-08-30T03:47:57.267Z,26.59
2017-08-30T03:48:37.715Z,26.66
2017-08-30T03:49:18.185Z,26.59
2017-08-30T03:49:58.645Z,26.61
2017-08-30T03:50:39.095Z,26.63
2017-08-30T03:51:19.555Z,26.61
2017-08-30T03:52:00.017Z,26.61
2017-08-30T03:52:40.475Z,26.64
2017-08-30T03:53:21.002Z,26.63
2017-08-30T03:54:01.470Z,26.53
2017-08-30T03:54:41.936Z,26.6
2017-08-30T03:55:22.384Z,26.55
2017-08-30T03:56:02.834Z,26.63
2017-08-30T03:56:43.294Z,26.55
2017-08-30T03:57:23.747Z,26.66
2017-08-30T03:58:04.282Z,26.6
2017-08-30T03:58:44.735Z,26.63
2017-08-30T04:00:22.173Z,26.63
2017-08-30T04:01:02.632Z,26.61
2017-08-30T04:01:43.089Z,26.63
2017-08-30T04:02:23.545Z,26.55
2017-08-30T04:03:04.010Z,26.55
2017-08-30T04:03:44.462Z,26.61
2017-08-30T04:04:24.913Z,26.61
2017-08-30T04:05:05.398Z,26.63
2017-08-30T04:05:45.818Z,26.64
2017-08-30T04:06:26.269Z,26.6
2017-08-30T04:07:06.719Z,26.59
2017-08-30T04:07:47.171Z,26.6
2017-08-30T04:08:27.625Z,26.63
2017-08-30T04:09:08.088Z,26.63
2017-08-30T04:09:48.564Z,26.6
2017-08-30T04:10:29.028Z,26.61
2017-08-30T04:11:09.483Z,26.66
2017-08-30T04:11:49.937Z,26.6
2017-08-30T04:12:30.385Z,26.67
2017-08-30T04:13:10.842Z,26.66
2017-08-30T04:13:51.284Z,26.6
2017-08-30T04:14:31.728Z,26.6
2017-08-30T04:15:12.181Z,26.61
2017-08-30T04:15:52.652Z,26.59
2017-08-30T04:16:33.117Z,26.6
2017-08-30T04:17:13.580Z,26.63
2017-08-30T04:17:54.035Z,26.6
2017-08-30T04:18:34.467Z,26.6
2017-08-30T04:19:14.921Z,26.56
2017-08-30T04:19:55.359Z,26.64
2017-08-30T04:20:35.867Z,26.61
2017-08-30T04:21:16.315Z,26.61
2017-08-30T04:21:56.761Z,26.6
2017-08-30T04:22:37.356Z,26.59
2017-08-30T04:23:17.805Z,26.6
2017-08-30T04:23:58.254Z,26.53
2017-08-30T04:24:38.697Z,26.56
2017-08-30T04:25:19.151Z,26.64
2017-08-30T04:25:59.597Z,26.63
2017-08-30T04:26:40.039Z,26.63
2017-08-30T04:28:52.872Z,26.49
2017-08-30T04:29:33.325Z,26.6
2017-08-30T04:30:13.782Z,26.53
2017-08-30T04:30:54.236Z,26.63
2017-08-30T04:31:34.682Z,26.56
2017-08-30T04:32:15.132Z,26.61
2017-08-30T04:32:55.591Z,26.53
2017-08-30T04:33:36.025Z,26.53
2017-08-30T04:34:16.478Z,26.52
2017-08-30T04:34:56.927Z,26.6
2017-08-30T04:35:37.370Z,26.55
2017-08-30T04:36:17.821Z,26.61
2017-08-30T04:36:58.271Z,26.55
2017-08-30T04:37:38.713Z,26.61
2017-08-30T04:38:19.173Z,26.55
2017-08-30T04:38:59.628Z,26.53
2017-08-30T04:39:40.090Z,26.53
2017-08-30T04:40:20.539Z,26.59
2017-08-30T04:41:01.010Z,26.59
2017-08-30T04:41:41.436Z,26.53
2017-08-30T04:42:21.881Z,26.56
2017-08-30T04:43:02.331Z,26.53
2017-08-30T04:43:42.795Z,26.55
2017-08-30T04:44:23.246Z,26.48
2017-08-30T04:45:03.710Z,26.53
2017-08-30T04:45:44.168Z,26.59
2017-08-30T04:46:24.658Z,26.6
2017-08-30T04:47:05.069Z,26.56
2017-08-30T04:47:45.536Z,26.49
2017-08-30T04:48:26.006Z,26.6
2017-08-30T04:49:06.451Z,26.56
2017-08-30T04:49:46.900Z,26.53
2017-08-30T04:50:27.363Z,26.55
2017-08-30T04:51:07.816Z,26.56
2017-08-30T04:51:48.264Z,26.52
2017-08-30T04:52:28.704Z,26.56
2017-08-30T04:53:09.164Z,26.59
2017-08-30T04:53:49.624Z,26.59
2017-08-30T04:54:30.080Z,26.59
2017-08-30T04:55:10.515Z,26.52
2017-08-30T04:55:50.971Z,26.59
2017-08-30T04:56:31.404Z,26.52
2017-08-30T04:57:11.867Z,26.53
2017-08-30T04:57:52.305Z,26.52
2017-08-30T04:58:32.760Z,26.51
2017-08-30T04:59:13.212Z,26.52
2017-08-30T04:59:53.661Z,26.53
2017-08-30T05:00:34.107Z,26.49
2017-08-30T05:01:14.556Z,26.51
2017-08-30T05:01:55.010Z,26.56
2017-08-30T05:02:35.456Z,26.56
2017-08-30T05:03:15.916Z,26.56
2017-08-30T05:03:56.373Z,26.56
2017-08-30T05:04:36.829Z,26.52
2017-08-30T05:05:17.300Z,26.55
2017-08-30T05:05:57.761Z,26.56
2017-08-30T05:06:38.212Z,26.59
2017-08-30T05:07:18.666Z,26.55
2017-08-30T05:07:59.127Z,26.51
2017-08-30T05:08:39.578Z,26.59
2017-08-30T05:09:20.031Z,26.49
2017-08-30T05:10:00.483Z,26.56
2017-08-30T05:10:40.932Z,26.51
2017-08-30T05:11:21.411Z,26.63
2017-08-30T05:12:01.873Z,26.49
2017-08-30T05:12:42.322Z,26.59
2017-08-30T05:13:22.761Z,26.64
2017-08-30T05:14:03.214Z,26.56
2017-08-30T05:14:43.672Z,26.63
2017-08-30T05:15:24.128Z,26.61
2017-08-30T05:16:04.584Z,26.55
2017-08-30T05:16:45.037Z,26.59
2017-08-30T05:17:25.477Z,26.6
2017-08-30T05:18:05.931Z,26.63
2017-08-30T05:18:46.370Z,26.63
2017-08-30T05:19:26.833Z,26.53
2017-08-30T05:20:07.301Z,26.61
2017-08-30T05:20:47.731Z,26.49
2017-08-30T05:21:28.195Z,26.55
2017-08-30T05:22:08.652Z,26.55
2017-08-30T05:22:49.109Z,26.53
2017-08-30T05:23:29.670Z,26.61
2017-08-30T05:24:10.116Z,26.6
2017-08-30T05:24:50.562Z,26.59
2017-08-30T05:25:31.084Z,26.59
2017-08-30T05:26:11.555Z,26.59
2017-08-30T05:26:52.001Z,26.53
2017-08-30T05:27:32.453Z,26.53
2017-08-30T05:28:12.896Z,26.56
2017-08-30T05:28:53.346Z,26.61
2017-08-30T05:29:33.803Z,26.55
2017-08-30T05:30:14.265Z,26.56
2017-08-30T05:30:54.712Z,26.63
2017-08-30T05:31:35.159Z,26.53
2017-08-30T05:32:15.616Z,26.61
2017-08-30T05:32:56.060Z,26.6
2017-08-30T05:33:36.504Z,26.63
2017-08-30T05:34:16.934Z,26.6
2017-08-30T05:34:57.384Z,26.56
2017-08-30T05:35:37.880Z,26.6
2017-08-30T05:36:18.305Z,26.51
2017-08-30T05:36:58.761Z,26.63
2017-08-30T05:37:39.212Z,26.59
2017-08-30T05:38:19.680Z,26.66
2017-08-30T05:39:00.131Z,26.6
2017-08-30T05:39:40.582Z,26.61
2017-08-30T05:40:21.041Z,26.64
2017-08-30T05:41:01.491Z,26.51
2017-08-30T05:41:41.954Z,26.64
2017-08-30T05:42:22.515Z,26.6
2017-08-30T05:43:02.964Z,26.61
2017-08-30T05:43:43.412Z,26.63
2017-08-30T05:44:23.863Z,26.64
2017-08-30T05:45:04.312Z,26.64
2017-08-30T05:45:44.769Z,26.63
2017-08-30T05:46:25.228Z,26.66
2017-08-30T05:47:05.679Z,26.61
2017-08-30T05:47:46.126Z,26.64
2017-08-30T05:48:26.577Z,26.59
2017-08-30T05:49:07.036Z,26.61
2017-08-30T05:49:47.498Z,26.61
2017-08-30T05:50:27.952Z,26.66
2017-08-30T05:51:08.413Z,26.66
2017-08-30T05:51:48.882Z,26.52
2017-08-30T05:52:29.329Z,26.61
2017-08-30T05:53:09.787Z,26.59
2017-08-30T05:53:50.234Z,26.56
2017-08-30T05:54:30.685Z,26.59
2017-08-30T05:55:11.133Z,26.59
2017-08-30T05:55:51.577Z,26.67
2017-08-30T05:56:32.025Z,26.6
2017-08-30T05:57:12.472Z,26.61
2017-08-30T05:57:52.925Z,26.61
2017-08-30T05:58:33.377Z,26.7
2017-08-30T05:59:13.820Z,26.67
2017-08-30T05:59:54.273Z,26.66
2017-08-30T06:00:34.722Z,26.71
2017-08-30T06:01:15.165Z,26.63
2017-08-30T06:01:55.612Z,26.73
2017-08-30T06:02:36.067Z,26.71
2017-08-30T06:03:16.503Z,26.68
2017-08-30T06:03:56.958Z,26.64
2017-08-30T06:04:37.408Z,26.61
2017-08-30T06:05:17.857Z,26.73
2017-08-30T06:05:58.309Z,26.6
2017-08-30T06:06:38.760Z,26.7
2017-08-30T06:07:19.215Z,26.66
2017-08-30T06:07:59.667Z,26.64
2017-08-30T06:08:40.118Z,26.76
2017-08-30T06:09:20.573Z,26.78
2017-08-30T06:10:01.026Z,26.79
2017-08-30T06:10:41.486Z,26.73
2017-08-30T06:11:21.946Z,26.76
2017-08-30T06:12:02.404Z,26.78
2017-08-30T06:12:42.902Z,26.76
2017-08-30T06:13:23.360Z,26.76
2017-08-30T06:14:03.817Z,26.73
2017-08-30T06:14:44.274Z,26.82
2017-08-30T06:15:24.723Z,26.82
2017-08-30T06:16:05.186Z,26.76
2017-08-30T06:16:45.644Z,26.71
2017-08-30T06:17:26.105Z,26.79
2017-08-30T06:18:06.605Z,26.82
2017-08-30T06:18:47.079Z,26.78
2017-08-30T06:19:27.538Z,26.85
2017-08-30T06:20:07.996Z,26.82
2017-08-30T06:20:48.443Z,26.79
2017-08-30T06:21:28.895Z,26.86
2017-08-30T06:22:09.347Z,26.82
2017-08-30T06:22:49.813Z,26.86
2017-08-30T06:23:30.302Z,26.81
2017-08-30T06:24:10.779Z,26.82
2017-08-30T06:24:51.232Z,26.79
2017-08-30T06:25:31.689Z,26.79
2017-08-30T06:26:12.150Z,26.76
2017-08-30T06:26:52.606Z,26.79
2017-08-30T06:27:33.062Z,26.91
2017-08-30T06:28:13.515Z,26.88
2017-08-30T06:28:53.974Z,26.86
2017-08-30T06:29:34.432Z,26.85
2017-08-30T06:30:14.879Z,26.81
2017-08-30T06:30:55.350Z,26.81
2017-08-30T06:31:35.804Z,26.81
2017-08-30T06:32:16.261Z,26.86
2017-08-30T06:32:56.726Z,26.91
2017-08-30T06:33:37.169Z,26.82
2017-08-30T06:34:17.612Z,26.92
2017-08-30T06:34:58.070Z,26.83
2017-08-30T06:35:38.517Z,26.91
2017-08-30T06:36:18.995Z,26.85
2017-08-30T06:36:59.452Z,26.93
2017-08-30T06:37:39.909Z,26.96
2017-08-30T06:38:20.473Z,26.91
2017-08-30T06:39:00.934Z,26.91
2017-08-30T06:39:41.377Z,26.91
2017-08-30T06:40:21.822Z,26.93
2017-08-30T06:41:02.284Z,26.86
2017-08-30T06:41:42.736Z,26.92
2017-08-30T06:42:23.312Z,26.86
2017-08-30T06:43:03.766Z,26.86
2017-08-30T06:43:44.221Z,26.89
2017-08-30T06:44:24.678Z,26.89
2017-08-30T06:45:05.134Z,26.86
2017-08-30T06:45:45.584Z,26.92
2017-08-30T06:46:26.036Z,26.97
2017-08-30T06:47:06.481Z,26.97
2017-08-30T06:47:46.936Z,26.89
2017-08-30T06:48:27.392Z,27.01
2017-08-30T06:49:07.849Z,27.01
2017-08-30T06:49:48.305Z,27
2017-08-30T06:50:28.760Z,27
2017-08-30T06:51:09.221Z,27.04
2017-08-30T06:51:49.676Z,26.98
2017-08-30T06:52:30.132Z,27.03
2017-08-30T06:53:10.582Z,27.01
2017-08-30T06:53:51.031Z,27.04
2017-08-30T06:54:31.497Z,27.07
2017-08-30T06:55:11.937Z,27.01
2017-08-30T06:55:52.390Z,27.04
2017-08-30T06:56:32.857Z,27.08
2017-08-30T06:57:13.313Z,27.1
2017-08-30T06:57:53.771Z,27.13
2017-08-30T06:58:34.225Z,27.18
2017-08-30T06:59:14.680Z,27.16
2017-08-30T06:59:55.132Z,27.13
2017-08-30T07:00:35.584Z,27.13
2017-08-30T07:01:16.045Z,27.22
2017-08-30T07:01:56.551Z,27.18
2017-08-30T07:02:37.062Z,27.22
2017-08-30T07:03:17.526Z,27.25
2017-08-30T07:03:57.977Z,27.11
2017-08-30T07:04:38.497Z,27.18
2017-08-30T07:05:18.946Z,27.22
2017-08-30T07:05:59.400Z,27.19
2017-08-30T07:06:39.854Z,27.22
2017-08-30T07:07:20.314Z,27.26
2017-08-30T07:08:00.766Z,27.22
2017-08-30T07:08:41.218Z,27.23
2017-08-30T07:09:21.663Z,27.23
2017-08-30T07:10:02.118Z,27.26
2017-08-30T07:10:42.572Z,27.29
2017-08-30T07:11:23.023Z,27.23
2017-08-30T07:12:03.480Z,27.3
2017-08-30T07:12:43.934Z,27.35
2017-08-30T07:13:24.388Z,27.35
2017-08-30T07:14:04.840Z,27.3
2017-08-30T07:14:45.299Z,27.35
2017-08-30T07:15:25.751Z,27.38
2017-08-30T07:16:06.203Z,27.28
2017-08-30T07:16:46.674Z,27.33
2017-08-30T07:18:59.449Z,27.45
2017-08-30T07:19:39.910Z,27.47
2017-08-30T07:20:20.364Z,27.48
2017-08-30T07:21:00.806Z,27.44
2017-08-30T07:21:41.265Z,27.4
2017-08-30T07:22:21.713Z,27.44
2017-08-30T07:23:02.173Z,27.53
2017-08-30T07:23:42.618Z,27.48
2017-08-30T07:24:23.080Z,27.41
2017-08-30T07:25:03.534Z,27.48
2017-08-30T07:25:43.991Z,27.55
2017-08-30T07:26:24.439Z,27.57
2017-08-30T07:27:04.898Z,27.55
2017-08-30T07:27:45.348Z,27.55
2017-08-30T07:28:25.801Z,27.55
2017-08-30T07:29:06.253Z,27.6
2017-08-30T07:29:46.715Z,27.57
2017-08-30T07:30:27.162Z,27.58
2017-08-30T07:31:07.611Z,27.6
2017-08-30T07:31:48.056Z,27.64
2017-08-30T07:32:28.506Z,27.63
2017-08-30T07:33:08.965Z,27.73
2017-08-30T07:33:49.422Z,27.64
2017-08-30T07:34:29.878Z,27.67
2017-08-30T07:35:10.333Z,27.64
2017-08-30T07:35:50.788Z,27.6
2017-08-30T07:36:31.240Z,27.68
2017-08-30T07:37:11.685Z,27.66
2017-08-30T07:37:52.137Z,27.63
2017-08-30T07:38:32.590Z,27.63
2017-08-30T07:39:13.046Z,27.68
2017-08-30T07:39:53.502Z,27.68
2017-08-30T07:40:33.957Z,27.72
2017-08-30T07:41:14.407Z,27.78
2017-08-30T07:41:54.863Z,27.64
2017-08-30T07:42:35.325Z,27.67
2017-08-30T07:43:15.784Z,27.75
2017-08-30T07:43:56.240Z,27.81
2017-08-30T07:44:36.693Z,27.83
2017-08-30T07:45:17.150Z,27.75
2017-08-30T07:45:57.610Z,27.72
2017-08-30T07:46:38.064Z,27.79
2017-08-30T07:47:18.529Z,27.78
2017-08-30T07:47:58.986Z,27.73
2017-08-30T07:48:39.437Z,27.82
2017-08-30T07:49:19.913Z,27.78
2017-08-30T07:50:00.369Z,27.79
2017-08-30T07:50:40.809Z,27.78
2017-08-30T07:51:21.265Z,27.75
2017-08-30T07:52:01.718Z,27.78
2017-08-30T07:52:42.170Z,27.81
2017-08-30T07:53:22.628Z,27.86
2017-08-30T07:54:03.090Z,27.82
2017-08-30T07:55:50.580Z,27.86
2017-08-30T07:56:31.025Z,27.83
2017-08-30T07:57:11.477Z,27.81
2017-08-30T07:57:51.940Z,27.91
2017-08-30T07:58:32.393Z,27.9
2017-08-30T07:59:12.846Z,27.94
2017-08-30T07:59:53.297Z,27.97
2017-08-30T08:00:33.742Z,27.94
2017-08-30T08:01:14.200Z,27.88
2017-08-30T08:01:54.668Z,27.95
2017-08-30T08:02:35.120Z,27.98
2017-08-30T08:03:15.573Z,27.97
2017-08-30T08:03:56.031Z,28.01
2017-08-30T08:04:36.489Z,28
2017-08-30T08:05:16.928Z,28.03
2017-08-30T08:05:57.389Z,28.01
2017-08-30T08:06:37.857Z,28
2017-08-30T08:07:18.301Z,28.08
2017-08-30T08:07:58.753Z,27.98
2017-08-30T08:08:39.208Z,28.01
2017-08-30T08:09:19.660Z,27.97
2017-08-30T08:10:00.117Z,28.08
2017-08-30T08:10:40.569Z,28.03
2017-08-30T08:11:21.030Z,27.95
2017-08-30T08:12:01.487Z,28.04
2017-08-30T08:12:43.778Z,28.08
2017-08-30T08:13:24.225Z,28.12
2017-08-30T08:14:04.675Z,28.01
2017-08-30T08:14:45.120Z,28.12
2017-08-30T08:15:25.532Z,28.01
2017-08-30T08:16:05.985Z,28.15
2017-08-30T08:16:46.439Z,28.01
2017-08-30T08:17:26.889Z,28.12
2017-08-30T08:18:07.339Z,28.01
2017-08-30T08:18:47.802Z,28
2017-08-30T08:19:28.265Z,28.01
2017-08-30T08:20:08.750Z,27.97
2017-08-30T08:20:49.207Z,27.98
2017-08-30T08:21:29.652Z,28
2017-08-30T08:22:10.111Z,28.01
2017-08-30T08:22:50.561Z,28.01
2017-08-30T08:23:31.017Z,28
2017-08-30T08:24:11.472Z,28.04
2017-08-30T08:24:51.920Z,27.98
2017-08-30T08:25:32.382Z,27.95
2017-08-30T08:26:12.838Z,28.04
2017-08-30T08:26:53.294Z,27.97
2017-08-30T08:27:33.758Z,28.01
2017-08-30T08:28:14.210Z,28.01
2017-08-30T08:28:54.673Z,28.01
2017-08-30T08:29:35.129Z,28.01
2017-08-30T08:30:15.576Z,28.03
2017-08-30T08:30:56.029Z,28.06
2017-08-30T08:31:36.478Z,28.03
2017-08-30T08:32:16.939Z,28
2017-08-30T08:32:57.389Z,27.95
2017-08-30T08:33:37.918Z,28.04
2017-08-30T08:34:18.365Z,28.15
2017-08-30T08:34:58.823Z,28.16
2017-08-30T08:35:39.262Z,28.16
2017-08-30T08:36:19.713Z,28.2
2017-08-30T08:37:00.163Z,28.25
2017-08-30T08:37:40.615Z,28.27
2017-08-30T08:38:21.059Z,28.25
2017-08-30T08:39:01.509Z,28.34
2017-08-30T08:39:41.966Z,28.34
2017-08-30T08:40:22.433Z,28.34
2017-08-30T08:41:02.885Z,28.46
2017-08-30T08:41:43.337Z,28.5
2017-08-30T08:42:23.788Z,28.49
2017-08-30T08:43:04.249Z,28.46
2017-08-30T08:43:44.702Z,28.52
2017-08-30T08:44:25.160Z,28.59
2017-08-30T08:45:05.615Z,28.57
2017-08-30T08:45:46.081Z,28.56
2017-08-30T08:46:26.539Z,28.6
2017-08-30T08:47:06.993Z,28.71
2017-08-30T08:47:47.434Z,28.7
2017-08-30T08:48:28.113Z,28.67
2017-08-30T08:50:05.587Z,28.74
2017-08-30T08:50:46.547Z,28.74